createdAt,value
2023-10-14T00:02:25.183Z,99.90
2023-10-14T00:04:59.973Z,99.90
2023-10-14T00:07:29.168Z,99.90
2023-10-14T00:09:58.856Z,99.90
2023-10-14T00:12:30.084Z,99.90
2023-10-14T00:15:06.205Z,99.90
2023-10-14T00:17:42.982Z,99.90
2023-10-14T00:20:12.291Z,99.90
2023-10-14T00:22:42.394Z,99.90
2023-10-14T00:25:21.480Z,99.90
2023-10-14T00:27:52.112Z,99.90
2023-10-14T00:30:28.075Z,99.90
2023-10-14T00:32:58.467Z,99.90
2023-10-14T00:35:29.225Z,99.90
2023-10-14T00:37:57.052Z,99.90
2023-10-14T00:40:24.206Z,99.90
2023-10-14T00:42:52.644Z,99.90
2023-10-14T00:45:23.193Z,99.90
2023-10-14T00:47:51.076Z,99.90
2023-10-14T00:50:36.674Z,99.90
2023-10-14T00:53:07.527Z,99.90
2023-10-14T00:55:53.935Z,99.90
2023-10-14T00:58:29.777Z,99.90
2023-10-14T01:01:08.480Z,99.90
2023-10-14T01:03:36.847Z,99.90
2023-10-14T01:06:23.958Z,99.90
2023-10-14T01:08:54.502Z,99.90
2023-10-14T01:11:28.245Z,99.90
2023-10-14T01:13:58.885Z,99.90
2023-10-14T01:16:26.191Z,99.90
2023-10-14T01:18:56.864Z,99.90
2023-10-14T01:21:29.474Z,99.90
2023-10-14T01:24:01.720Z,99.90
2023-10-14T01:26:34.617Z,99.90
2023-10-14T01:29:08.381Z,99.90
2023-10-14T01:32:12.265Z,99.90
2023-10-14T01:34:44.096Z,99.90
2023-10-14T01:37:17.033Z,99.90
2023-10-14T01:39:50.101Z,99.90
2023-10-14T01:42:20.644Z,99.90
2023-10-14T01:44:54.524Z,99.90
2023-10-14T01:47:26.962Z,99.90
2023-10-14T01:49:57.313Z,99.90
2023-10-14T01:52:24.612Z,99.90
2023-10-14T01:54:57.311Z,99.90
2023-10-14T01:57:27.560Z,99.90
2023-10-14T01:59:54.643Z,99.90
2023-10-14T02:02:22.287Z,99.90
2023-10-14T02:04:57.465Z,99.90
2023-10-14T02:07:27.695Z,99.90
2023-10-14T02:10:00.249Z,99.90
2023-10-14T02:12:36.156Z,99.90
2023-10-14T02:15:09.738Z,99.90
2023-10-14T02:17:41.279Z,99.90
2023-10-14T02:20:21.407Z,99.90
2023-10-14T02:22:51.586Z,99.90
2023-10-14T02:25:21.935Z,99.90
2023-10-14T02:27:50.000Z,99.90
2023-10-14T02:30:17.180Z,99.90
2023-10-14T02:32:46.356Z,99.90
2023-10-14T02:35:17.028Z,99.90
2023-10-14T02:37:45.237Z,99.90
2023-10-14T02:40:25.724Z,99.90
2023-10-14T02:42:59.096Z,99.90
2023-10-14T02:45:34.374Z,99.90
2023-10-14T02:48:03.538Z,99.90
2023-10-14T02:50:36.125Z,99.90
2023-10-14T02:53:08.931Z,99.90
2023-10-14T02:55:54.035Z,99.90
2023-10-14T02:58:23.164Z,99.90
2023-10-14T03:00:59.269Z,99.90
2023-10-14T03:03:31.074Z,99.90
2023-10-14T03:06:07.199Z,99.90
2023-10-14T03:08:36.148Z,99.90
2023-10-14T03:11:17.679Z,99.90
2023-10-14T03:13:46.354Z,99.90
2023-10-14T03:16:18.660Z,99.90
2023-10-14T03:18:46.929Z,99.90
2023-10-14T03:21:23.754Z,99.90
2023-10-14T03:23:58.176Z,99.90
2023-10-14T03:26:33.160Z,99.90
2023-10-14T03:29:13.751Z,99.90
2023-10-14T03:31:46.381Z,99.90
2023-10-14T03:34:18.876Z,99.90
2023-10-14T03:36:51.821Z,99.90
2023-10-14T03:39:39.355Z,99.90
2023-10-14T03:42:12.439Z,99.90
2023-10-14T03:44:43.218Z,99.90
2023-10-14T03:47:18.142Z,99.90
2023-10-14T03:49:45.342Z,99.90
2023-10-14T03:52:14.803Z,99.90
2023-10-14T03:54:43.181Z,99.90
2023-10-14T03:57:16.109Z,99.90
2023-10-14T03:59:49.598Z,99.90
2023-10-14T04:02:21.662Z,99.90
2023-10-14T04:04:59.256Z,99.90
2023-10-14T04:07:32.846Z,99.90
2023-10-14T04:10:06.248Z,99.90
2023-10-14T04:12:36.804Z,99.90
2023-10-14T04:15:15.144Z,99.90
2023-10-14T04:17:48.193Z,99.90
2023-10-14T04:20:22.168Z,99.90
2023-10-14T04:22:52.582Z,99.90
2023-10-14T04:25:28.439Z,99.90
2023-10-14T04:28:16.543Z,99.90
2023-10-14T04:30:46.204Z,99.90
2023-10-14T04:33:16.306Z,99.90
2023-10-14T04:36:06.707Z,99.90
2023-10-14T04:38:44.673Z,99.90
2023-10-14T04:41:15.878Z,99.90
2023-10-14T04:43:49.302Z,99.90
2023-10-14T04:46:24.157Z,99.90
2023-10-14T04:49:00.789Z,99.90
2023-10-14T04:51:47.116Z,99.90
2023-10-14T04:54:21.152Z,99.90
2023-10-14T04:56:49.827Z,99.90
2023-10-14T04:59:25.808Z,99.90
2023-10-14T05:01:54.054Z,99.90
2023-10-14T05:04:23.593Z,99.90
2023-10-14T05:06:54.900Z,99.90
2023-10-14T05:09:41.018Z,99.90
2023-10-14T05:12:09.725Z,99.90
2023-10-14T05:14:40.093Z,99.90
2023-10-14T05:17:16.381Z,99.90
2023-10-14T05:19:45.576Z,99.90
2023-10-14T05:22:14.895Z,99.90
2023-10-14T05:24:49.845Z,99.90
2023-10-14T05:27:23.664Z,99.90
2023-10-14T05:29:53.042Z,99.90
2023-10-14T05:32:32.754Z,99.90
2023-10-14T05:35:11.050Z,99.90
2023-10-14T05:37:46.700Z,99.90
2023-10-14T05:40:17.190Z,99.90
2023-10-14T05:42:44.724Z,99.90
2023-10-14T05:45:15.373Z,99.90
2023-10-14T05:47:43.719Z,99.90
2023-10-14T05:50:16.426Z,99.90
2023-10-14T05:52:48.591Z,99.90
2023-10-14T05:55:21.647Z,99.90
2023-10-14T05:57:51.930Z,99.90
2023-10-14T06:00:24.132Z,99.90
2023-10-14T06:02:58.646Z,99.90
2023-10-14T06:05:27.425Z,99.90
2023-10-14T06:08:09.628Z,99.90
2023-10-14T06:10:43.163Z,99.90
2023-10-14T06:13:15.698Z,99.90
2023-10-14T06:15:46.001Z,99.90
2023-10-14T06:18:16.498Z,99.90
2023-10-14T06:20:43.954Z,99.90
2023-10-14T06:23:13.609Z,99.90
2023-10-14T06:25:47.197Z,99.90
2023-10-14T06:28:15.987Z,99.90
2023-10-14T06:30:44.418Z,99.90
2023-10-14T06:33:13.749Z,99.90
2023-10-14T06:35:44.041Z,99.90
2023-10-14T06:38:21.335Z,99.90
2023-10-14T06:40:54.809Z,99.90
2023-10-14T06:43:25.754Z,99.90
2023-10-14T06:45:58.152Z,99.90
2023-10-14T06:48:27.550Z,99.90
2023-10-14T06:50:56.224Z,99.90
2023-10-14T06:53:30.093Z,99.90
2023-10-14T06:56:02.850Z,97.60
2023-10-14T06:58:30.575Z,97.90
2023-10-14T07:01:00.504Z,96.60
2023-10-14T07:03:35.031Z,95.50
2023-10-14T07:06:06.357Z,94.90
2023-10-14T07:08:37.666Z,93.90
2023-10-14T07:11:07.802Z,93.00
2023-10-14T07:13:40.005Z,92.20
2023-10-14T07:16:08.224Z,92.60
2023-10-14T07:18:39.399Z,92.80
2023-10-14T07:21:14.285Z,92.40
2023-10-14T07:23:46.066Z,92.30
2023-10-14T07:26:15.119Z,90.10
2023-10-14T07:28:44.953Z,90.90
2023-10-14T07:31:15.561Z,90.60
2023-10-14T07:33:52.073Z,89.40
2023-10-14T07:36:19.853Z,90.40
2023-10-14T07:39:26.024Z,90.40
2023-10-14T07:41:53.803Z,89.80
2023-10-14T07:44:25.899Z,89.10
2023-10-14T07:46:57.291Z,89.40
2023-10-14T07:49:25.854Z,88.00
2023-10-14T07:52:02.056Z,86.40
2023-10-14T07:54:47.493Z,83.60
2023-10-14T07:57:18.622Z,79.60
2023-10-14T07:59:52.182Z,80.20
2023-10-14T08:02:20.666Z,77.60
2023-10-14T08:04:54.694Z,75.80
2023-10-14T08:07:24.034Z,73.80
2023-10-14T08:09:53.124Z,71.80
2023-10-14T08:12:21.644Z,70.70
2023-10-14T08:14:53.558Z,69.60
2023-10-14T08:17:25.114Z,68.50
2023-10-14T08:19:55.336Z,67.50
2023-10-14T08:22:24.484Z,66.50
2023-10-14T08:24:54.913Z,65.70
2023-10-14T08:27:23.601Z,65.90
2023-10-14T08:29:50.619Z,67.60
2023-10-14T08:32:19.458Z,66.40
2023-10-14T08:34:46.580Z,69.20
2023-10-14T08:37:15.904Z,71.60
2023-10-14T08:39:45.377Z,71.20
2023-10-14T08:42:12.774Z,69.30
2023-10-14T08:44:45.151Z,67.40
2023-10-14T08:47:17.199Z,69.90
2023-10-14T08:49:47.496Z,71.50
2023-10-14T08:52:18.273Z,70.50
2023-10-14T08:54:50.199Z,73.10
2023-10-14T08:57:23.629Z,75.20
2023-10-14T08:59:50.826Z,73.50
2023-10-14T09:02:23.500Z,71.70
2023-10-14T09:04:52.028Z,70.90
2023-10-14T09:07:23.477Z,69.60
2023-10-14T09:09:56.772Z,68.50
2023-10-14T09:12:24.934Z,67.50
2023-10-14T09:14:57.736Z,65.90
2023-10-14T09:17:29.563Z,64.30
2023-10-14T09:19:58.649Z,61.90
2023-10-14T09:22:29.316Z,60.50
2023-10-14T09:25:00.704Z,61.50
2023-10-14T09:27:33.046Z,60.30
2023-10-14T09:30:04.988Z,59.10
2023-10-14T09:32:36.533Z,59.10
2023-10-14T09:35:05.362Z,58.60
2023-10-14T09:37:39.363Z,58.50
2023-10-14T09:40:14.471Z,57.50
2023-10-14T09:42:42.962Z,58.20
2023-10-14T09:45:13.932Z,60.00
2023-10-14T09:47:47.968Z,61.30
2023-10-14T09:50:18.755Z,61.10
2023-10-14T09:52:49.220Z,64.10
2023-10-14T09:55:21.002Z,65.50
2023-10-14T09:57:52.382Z,63.90
2023-10-14T10:00:22.365Z,60.00
2023-10-14T10:02:52.849Z,60.30
2023-10-14T10:05:37.419Z,60.20
2023-10-14T10:08:35.694Z,58.90
2023-10-14T10:11:04.005Z,59.40
2023-10-14T10:13:31.639Z,58.00
2023-10-14T10:16:06.182Z,57.60
2023-10-14T10:18:53.233Z,59.00
2023-10-14T10:21:20.798Z,59.30
2023-10-14T10:23:57.814Z,60.00
2023-10-14T10:26:27.992Z,62.20
2023-10-14T10:29:00.450Z,62.70
2023-10-14T10:31:28.609Z,63.80
2023-10-14T10:33:58.308Z,66.00
2023-10-14T10:36:33.819Z,65.90
2023-10-14T10:39:18.207Z,66.00
2023-10-14T10:41:52.052Z,66.60
2023-10-14T10:44:20.493Z,63.00
2023-10-14T10:46:59.343Z,62.30
2023-10-14T10:50:00.963Z,61.70
2023-10-14T10:52:37.744Z,62.30
2023-10-14T10:55:07.698Z,63.30
2023-10-14T10:57:39.942Z,65.20
2023-10-14T11:00:10.911Z,67.40
2023-10-14T11:02:40.732Z,66.40
2023-10-14T11:05:14.327Z,65.10
2023-10-14T11:07:45.136Z,66.30
2023-10-14T11:10:14.332Z,66.90
2023-10-14T11:12:42.424Z,67.30
2023-10-14T11:15:22.995Z,67.80
2023-10-14T11:17:58.545Z,68.80
2023-10-14T11:20:35.860Z,69.30
2023-10-14T11:23:06.285Z,71.20
2023-10-14T11:25:38.001Z,72.80
2023-10-14T11:28:07.197Z,72.00
2023-10-14T11:30:34.469Z,72.10
2023-10-14T11:33:01.694Z,71.90
2023-10-14T11:35:31.825Z,72.00
2023-10-14T11:38:01.945Z,73.30
2023-10-14T11:40:35.691Z,74.80
2023-10-14T11:43:03.447Z,72.30
2023-10-14T11:45:33.483Z,73.50
2023-10-14T11:48:03.385Z,75.30
2023-10-14T11:50:32.110Z,76.60
2023-10-14T11:52:59.246Z,77.40
2023-10-14T11:55:29.448Z,77.70
2023-10-14T11:57:56.576Z,76.60
2023-10-14T12:00:24.326Z,77.80
2023-10-14T12:02:52.866Z,79.50
2023-10-14T12:05:21.188Z,79.60
2023-10-14T12:07:48.623Z,81.50
2023-10-14T12:10:16.039Z,80.60
2023-10-14T12:12:44.689Z,79.90
2023-10-14T12:15:11.793Z,78.90
2023-10-14T12:17:40.933Z,79.50
2023-10-14T12:20:11.798Z,79.70
2023-10-14T12:22:41.920Z,79.00
2023-10-14T12:25:10.036Z,80.40
2023-10-14T12:27:40.588Z,80.40
2023-10-14T12:30:29.654Z,80.60
2023-10-14T12:33:05.874Z,81.70
2023-10-14T12:35:41.166Z,81.90
2023-10-14T12:38:17.223Z,81.20
2023-10-14T12:40:50.562Z,82.00
2023-10-14T12:43:19.079Z,81.50
2023-10-14T12:45:52.596Z,79.40
2023-10-14T12:48:25.651Z,80.10
2023-10-14T12:50:56.700Z,81.70
2023-10-14T12:53:25.826Z,81.60
2023-10-14T12:55:56.044Z,81.30
2023-10-14T12:58:26.342Z,82.00
2023-10-14T13:00:57.615Z,82.70
2023-10-14T13:03:26.873Z,83.30
2023-10-14T13:06:02.473Z,84.50
2023-10-14T13:08:32.768Z,84.80
2023-10-14T13:11:01.014Z,84.10
2023-10-14T13:13:32.049Z,82.70
2023-10-14T13:16:02.587Z,82.40
2023-10-14T13:18:30.711Z,83.10
2023-10-14T13:21:01.180Z,83.40
2023-10-14T13:23:30.295Z,82.30
2023-10-14T13:26:00.403Z,83.70
2023-10-14T13:28:27.524Z,81.80
2023-10-14T13:30:55.681Z,82.00
2023-10-14T13:33:26.083Z,82.60
2023-10-14T13:35:57.195Z,83.00
2023-10-14T13:38:24.952Z,84.10
2023-10-14T13:40:54.663Z,84.50
2023-10-14T13:43:22.019Z,84.30
2023-10-14T13:45:53.707Z,83.80
2023-10-14T13:48:24.743Z,84.00
2023-10-14T13:50:55.978Z,83.40
2023-10-14T13:53:24.996Z,84.30
2023-10-14T13:55:56.930Z,83.50
2023-10-14T13:58:27.395Z,83.10
2023-10-14T14:00:58.325Z,83.20
2023-10-14T14:03:31.363Z,83.90
2023-10-14T14:06:07.519Z,83.10
2023-10-14T14:08:37.698Z,83.00
2023-10-14T14:11:06.778Z,83.90
2023-10-14T14:13:39.873Z,83.50
2023-10-14T14:16:10.224Z,85.10
2023-10-14T14:18:40.396Z,85.60
2023-10-14T14:21:13.561Z,87.10
2023-10-14T14:23:42.679Z,88.20
2023-10-14T14:26:10.227Z,89.10
2023-10-14T14:28:39.350Z,88.40
2023-10-14T14:31:06.387Z,88.20
2023-10-14T14:33:36.500Z,87.70
2023-10-14T14:36:11.998Z,86.50
2023-10-14T14:38:44.822Z,86.80
2023-10-14T14:41:19.550Z,86.00
2023-10-14T14:43:47.082Z,86.10
2023-10-14T14:46:20.382Z,87.30
2023-10-14T14:48:50.175Z,88.00
2023-10-14T14:51:19.241Z,88.90
2023-10-14T14:53:49.371Z,90.10
2023-10-14T14:56:20.177Z,91.00
2023-10-14T14:58:50.017Z,90.70
2023-10-14T15:01:25.441Z,90.50
2023-10-14T15:03:56.029Z,90.30
2023-10-14T15:06:25.322Z,90.20
2023-10-14T15:08:55.451Z,90.20
2023-10-14T15:11:26.736Z,90.00
2023-10-14T15:13:55.787Z,88.60
2023-10-14T15:16:37.167Z,88.50
2023-10-14T15:19:10.332Z,88.50
2023-10-14T15:21:37.424Z,90.00
2023-10-14T15:24:10.477Z,90.40
2023-10-14T15:26:37.659Z,89.70
2023-10-14T15:29:09.490Z,89.90
2023-10-14T15:31:39.776Z,90.00
2023-10-14T15:34:10.613Z,90.20
2023-10-14T15:36:38.778Z,90.60
2023-10-14T15:39:17.054Z,90.80
2023-10-14T15:41:48.552Z,90.30
2023-10-14T15:44:15.637Z,90.10
2023-10-14T15:46:45.861Z,90.30
2023-10-14T15:49:14.033Z,90.30
2023-10-14T15:51:43.346Z,90.30
2023-10-14T15:54:15.045Z,90.20
2023-10-14T15:56:45.177Z,89.80
2023-10-14T15:59:12.232Z,90.80
2023-10-14T16:01:39.403Z,90.20
2023-10-14T16:04:06.810Z,89.80
2023-10-14T16:06:37.567Z,89.30
2023-10-14T16:09:10.822Z,90.10
2023-10-14T16:11:38.798Z,90.40
2023-10-14T16:14:05.922Z,90.50
2023-10-14T16:16:36.147Z,91.00
2023-10-14T16:19:03.332Z,91.20
2023-10-14T16:21:32.286Z,91.70
2023-10-14T16:24:03.075Z,92.10
2023-10-14T16:26:30.140Z,91.70
2023-10-14T16:29:04.521Z,91.10
2023-10-14T16:31:36.386Z,91.10
2023-10-14T16:34:06.736Z,90.90
2023-10-14T16:36:36.843Z,91.20
2023-10-14T16:39:10.634Z,91.20
2023-10-14T16:41:37.929Z,91.90
2023-10-14T16:44:07.432Z,92.20
2023-10-14T16:46:36.732Z,91.60
2023-10-14T16:49:05.869Z,91.10
2023-10-14T16:51:34.964Z,90.50
2023-10-14T16:54:06.351Z,90.20
2023-10-14T16:56:34.423Z,90.50
2023-10-14T16:59:11.386Z,90.70
2023-10-14T17:01:44.466Z,91.00
2023-10-14T17:04:13.738Z,90.90
2023-10-14T17:06:41.961Z,91.00
2023-10-14T17:09:12.072Z,91.10
2023-10-14T17:11:42.294Z,91.70
2023-10-14T17:14:13.435Z,91.60
2023-10-14T17:16:41.366Z,91.70
2023-10-14T17:19:10.954Z,92.10
2023-10-14T17:21:42.376Z,91.80
2023-10-14T17:24:15.559Z,91.10
2023-10-14T17:26:47.441Z,90.70
2023-10-14T17:29:14.777Z,91.30
2023-10-14T17:31:42.131Z,91.10
2023-10-14T17:34:11.235Z,91.30
2023-10-14T17:36:41.892Z,91.70
2023-10-14T17:39:23.030Z,92.20
2023-10-14T17:41:51.728Z,92.20
2023-10-14T17:44:19.928Z,91.90
2023-10-14T17:46:48.142Z,92.10
2023-10-14T17:49:16.314Z,91.90
2023-10-14T17:51:46.486Z,92.00
2023-10-14T17:54:15.650Z,92.00
2023-10-14T17:56:44.644Z,91.90
2023-10-14T17:59:15.924Z,91.50
2023-10-14T18:01:46.236Z,91.50
2023-10-14T18:04:13.449Z,91.70
2023-10-14T18:06:41.006Z,91.50
2023-10-14T18:09:14.764Z,91.20
2023-10-14T18:11:51.370Z,91.20
2023-10-14T18:14:20.972Z,91.40
2023-10-14T18:17:03.109Z,91.60
2023-10-14T18:19:33.351Z,91.60
2023-10-14T18:22:03.753Z,91.70
2023-10-14T18:24:34.570Z,91.50
2023-10-14T18:27:05.541Z,91.20
2023-10-14T18:29:33.597Z,91.40
2023-10-14T18:32:01.903Z,91.50
2023-10-14T18:34:31.164Z,91.40
2023-10-14T18:37:00.078Z,91.30
2023-10-14T18:39:28.200Z,91.00
2023-10-14T18:41:58.296Z,90.70
2023-10-14T18:44:25.286Z,90.60
2023-10-14T18:46:58.172Z,90.40
2023-10-14T18:49:30.745Z,90.60
2023-10-14T18:51:58.216Z,90.70
2023-10-14T18:54:32.814Z,90.80
2023-10-14T18:57:03.904Z,90.70
2023-10-14T18:59:39.487Z,90.80
2023-10-14T19:02:08.599Z,90.90
2023-10-14T19:04:38.223Z,91.10
2023-10-14T19:07:10.953Z,90.70
2023-10-14T19:09:41.328Z,90.50
2023-10-14T19:12:08.360Z,90.20
2023-10-14T19:14:48.064Z,90.10
2023-10-14T19:17:19.346Z,90.00
2023-10-14T19:19:49.253Z,90.10
2023-10-14T19:22:22.541Z,90.20
2023-10-14T19:24:56.675Z,90.30
2023-10-14T19:27:35.037Z,90.30
2023-10-14T19:30:08.861Z,90.30
2023-10-14T19:32:40.011Z,90.30
2023-10-14T19:35:09.316Z,90.20
2023-10-14T19:37:37.700Z,90.30
2023-10-14T19:40:16.814Z,90.30
2023-10-14T19:42:46.277Z,90.40
2023-10-14T19:45:17.446Z,90.30
2023-10-14T19:47:48.565Z,90.40
2023-10-14T19:50:18.147Z,90.30
2023-10-14T19:52:47.780Z,90.10
2023-10-14T19:55:45.741Z,90.30
2023-10-14T19:58:19.227Z,90.30
2023-10-14T20:00:51.052Z,90.50
2023-10-14T20:03:21.343Z,90.60
2023-10-14T20:05:52.757Z,90.70
2023-10-14T20:08:23.506Z,90.80
2023-10-14T20:10:55.712Z,90.80
2023-10-14T20:13:24.983Z,90.90
2023-10-14T20:15:54.272Z,91.00
2023-10-14T20:18:24.617Z,91.00
2023-10-14T20:20:54.699Z,91.10
2023-10-14T20:23:26.713Z,91.00
2023-10-14T20:25:57.237Z,90.60
2023-10-14T20:28:28.677Z,90.50
2023-10-14T20:31:00.723Z,90.50
2023-10-14T20:33:29.358Z,90.60
2023-10-14T20:35:57.806Z,91.10
2023-10-14T20:38:30.405Z,91.50
2023-10-14T20:41:06.601Z,92.10
2023-10-14T20:43:38.062Z,92.30
2023-10-14T20:46:11.436Z,92.30
2023-10-14T20:48:42.167Z,91.90
2023-10-14T20:51:14.423Z,91.70
2023-10-14T20:53:41.512Z,91.70
2023-10-14T20:56:11.186Z,91.90
2023-10-14T20:58:38.982Z,91.90
2023-10-14T21:01:14.479Z,92.00
2023-10-14T21:03:41.741Z,92.20
2023-10-14T21:06:11.055Z,91.80
2023-10-14T21:08:41.553Z,91.80
2023-10-14T21:11:12.717Z,91.70
2023-10-14T21:13:43.020Z,91.10
2023-10-14T21:16:14.315Z,90.60
2023-10-14T21:18:46.254Z,90.80
2023-10-14T21:21:25.302Z,90.90
2023-10-14T21:23:52.552Z,90.40
2023-10-14T21:26:22.699Z,90.80
2023-10-14T21:28:53.908Z,91.10
2023-10-14T21:31:22.500Z,91.10
2023-10-14T21:33:49.684Z,91.10
2023-10-14T21:36:18.104Z,90.70
2023-10-14T21:38:51.921Z,90.50
2023-10-14T21:41:22.822Z,90.30
2023-10-14T21:43:50.286Z,90.40
2023-10-14T21:46:17.700Z,90.10
2023-10-14T21:48:48.092Z,90.20
2023-10-14T21:51:21.758Z,90.40
2023-10-14T21:53:51.915Z,90.60
2023-10-14T21:56:23.275Z,91.00
2023-10-14T21:58:53.685Z,91.30
2023-10-14T22:01:24.926Z,91.90
2023-10-14T22:03:54.431Z,93.30
2023-10-14T22:06:23.337Z,94.10
2023-10-14T22:08:52.687Z,94.40
2023-10-14T22:11:25.459Z,94.60
2023-10-14T22:13:54.544Z,94.50
2023-10-14T22:16:21.696Z,94.10
2023-10-14T22:18:52.534Z,94.30
2023-10-14T22:21:20.759Z,94.50
2023-10-14T22:23:50.185Z,94.90
2023-10-14T22:26:17.483Z,94.60
2023-10-14T22:28:45.539Z,94.70
2023-10-14T22:31:16.948Z,95.50
2023-10-14T22:33:47.337Z,95.40
2023-10-14T22:36:17.401Z,95.20
2023-10-14T22:38:51.201Z,95.50
2023-10-14T22:41:21.323Z,96.30
2023-10-14T22:43:52.470Z,96.00
2023-10-14T22:46:20.594Z,96.00
2023-10-14T22:48:50.999Z,96.00
2023-10-14T22:51:23.363Z,95.70
2023-10-14T22:53:51.425Z,95.50
2023-10-14T22:56:18.441Z,95.10
2023-10-14T22:58:50.011Z,95.20
2023-10-14T23:01:18.315Z,95.60
2023-10-14T23:03:48.588Z,94.80
2023-10-14T23:06:25.260Z,95.00
2023-10-14T23:08:53.617Z,95.80
2023-10-14T23:11:20.602Z,96.70
2023-10-14T23:13:52.210Z,96.20
2023-10-14T23:16:22.380Z,96.10
2023-10-14T23:18:50.405Z,96.40
2023-10-14T23:21:20.579Z,96.40
2023-10-14T23:23:48.620Z,96.00
2023-10-14T23:26:18.459Z,96.20
2023-10-14T23:28:45.633Z,95.60
2023-10-14T23:31:16.262Z,95.60
2023-10-14T23:33:46.514Z,95.30
2023-10-14T23:36:14.618Z,96.10
2023-10-14T23:38:41.933Z,96.30
2023-10-14T23:41:11.582Z,96.80
2023-10-14T23:43:45.829Z,96.60
2023-10-14T23:46:16.168Z,97.00
2023-10-14T23:48:45.666Z,97.00
2023-10-14T23:51:14.751Z,96.60
2023-10-14T23:53:45.514Z,96.20
2023-10-14T23:56:15.710Z,96.80
2023-10-14T23:58:42.949Z,96.90
